WetterOnline ( http://www.wetteronline.ch )

Wetter aktuell Greifswald

Aktuelles Wetter: Greifswald (6m)

6-stündlich | Neueste Meldungen
Ortszeit Temperatur Wetter
Di, 14.08. 8:00 17.5° C bedeckt
Di, 14.08. 2:00 18.0° C leicht bewölkt
Mo, 13.08. 20:00 22.2° C bewölkt
Mo, 13.08. 14:00 26.7° C leicht bewölkt
Mo, 13.08. 8:00 18.8° C leicht bewölkt
Mo, 13.08. 2:00 17.8° C bewölkt
So, 12.08. 20:00 19.0° C bedeckt
So, 12.08. 14:00 21.2° C leicht bewölkt
Ortszeit Temperatur Wetter
Di, 14.08. 8:00 17.5° C bedeckt
Di, 14.08. 7:50 17.5° C bedeckt
Di, 14.08. 7:40 17.4° C bedeckt
Di, 14.08. 7:30 17.3° C bewölkt
Di, 14.08. 7:20 17.3° C bewölkt
Di, 14.08. 7:10 17.2° C wolkig
Di, 14.08. 7:00 17.1° C fast wolkenlos
Di, 14.08. 6:30 17.1° C fast wolkenlos
Di, 14.08. 6:00 17.5° C fast wolkenlos
Di, 14.08. 5:30 17.6° C leicht bewölkt
Di, 14.08. 5:00 18.1° C leicht bewölkt
Ortszeit Relative Feuchte Sichtweite
Di, 14.08. 8:00 82% 13 km
Di, 14.08. 2:00 76% 40 km
Mo, 13.08. 20:00 63% 40 km
Mo, 13.08. 14:00 31% 50 km
Mo, 13.08. 8:00 80% 40 km
Mo, 13.08. 2:00 77% 30 km
So, 12.08. 20:00 64% 40 km
So, 12.08. 14:00 39% 45 km
Ortszeit Relative Feuchte Sichtweite
Di, 14.08. 8:00 82% 13 km
Di, 14.08. 7:50 82% -
Di, 14.08. 7:40 83% -
Di, 14.08. 7:30 85% 13 km
Di, 14.08. 7:20 85% -
Di, 14.08. 7:10 85% -
Di, 14.08. 7:00 85% 14 km
Di, 14.08. 6:30 85% 17 km
Di, 14.08. 6:00 83% 18 km
Di, 14.08. 5:30 83% 25 km
Di, 14.08. 5:00 81% 25 km
Ortszeit Niederschlagsmenge Niederschlagsart
Di, 14.08. 8:00 0.0 l/m2 in 12 Std. -
Di, 14.08. 2:00 0.0 l/m2 in 6 Std. -
Mo, 13.08. 20:00 0.1 l/m2 in 12 Std. -
Mo, 13.08. 14:00 0.0 l/m2 in 6 Std. -
Mo, 13.08. 8:00 0.1 l/m2 in 12 Std. Regen
Mo, 13.08. 2:00 0.1 l/m2 in 6 Std. Regen
So, 12.08. 20:00 0.0 l/m2 in 12 Std. -
So, 12.08. 14:00 0.0 l/m2 in 6 Std. -
Ortszeit Niederschlagsmenge Niederschlagsart
Di, 14.08. 8:00 0.0 l/m2 in 1 Std. -
Di, 14.08. 7:50 keine Meldung -
Di, 14.08. 7:40 keine Meldung -
Di, 14.08. 7:30 0.0 l/m2 in 1 Std. -
Di, 14.08. 7:20 keine Meldung -
Di, 14.08. 7:10 keine Meldung -
Di, 14.08. 7:00 0.0 l/m2 in 1 Std. -
Di, 14.08. 6:30 0.0 l/m2 in 1 Std. -
Di, 14.08. 6:00 0.0 l/m2 in 1 Std. -
Di, 14.08. 5:30 0.0 l/m2 in 1 Std. -
Di, 14.08. 5:00 0.0 l/m2 in 1 Std. -
Ortszeit Stärke Spitze Richtung
km/h Bft. km/h Grad Sektor
Di, 14.08. 8:00 14 3 29 250° W
Di, 14.08. 2:00 4 1 11 200° S
Mo, 13.08. 20:00 4 1 40 120° SO
Mo, 13.08. 14:00 15 3 24 100° O
Mo, 13.08. 8:00 7 2 - 100° O
Mo, 13.08. 2:00 4 1 - 120° SO
So, 12.08. 20:00 4 1 - 300° NW
So, 12.08. 14:00 25 4 - 240° SW
Ortszeit Stärke Spitze Richtung
km/h Bft. km/h Grad Sektor
Di, 14.08. 8:00 14 3 29 250° W
Di, 14.08. 7:50 14 3 - 250° W
Di, 14.08. 7:40 17 3 - 240° SW
Di, 14.08. 7:30 17 3 26 240° SW
Di, 14.08. 7:20 17 3 - 240° SW
Di, 14.08. 7:10 14 3 - 240° SW
Di, 14.08. 7:00 9 2 17 230° SW
Di, 14.08. 6:30 9 2 17 220° SW
Di, 14.08. 6:00 7 2 13 220° SW
Di, 14.08. 5:30 7 2 13 240° SW
Di, 14.08. 5:00 7 2 18 230° SW
Ortszeit Untergrenze Bedeckung Gattung
total tief tief mittel hoch
Di, 14.08. 8:00 390 m 8/8 7/8 Cu - -
Di, 14.08. 2:00 2100 m 4/8 2/8 Sc Ac -
Mo, 13.08. 20:00 1800 m 8/8 2/8 Sc As -
Mo, 13.08. 14:00 3600 m 7/8 7/8 - Ac -
Mo, 13.08. 8:00 2700 m 6/8 6/8 - As -
Mo, 13.08. 2:00 1800 m 8/8 5/8 Sc As -
So, 12.08. 20:00 1800 m 8/8 8/8 Sc - -
So, 12.08. 14:00 1500 m 6/8 2/8 Cu Ac Ci
Ortszeit Bedeckungsgrad in Achtel und Wolkenuntergrenze
Di, 14.08. 8:00 7(390m)
Di, 14.08. 7:50 8(390m)
Di, 14.08. 7:40 8(360m)
Di, 14.08. 7:30 7(390m)
Di, 14.08. 7:20 7(390m)
Di, 14.08. 7:10 5(390m)
Di, 14.08. 7:00 1(1500m)
Di, 14.08. 6:30 1(5100m)
Di, 14.08. 6:00 1(5100m)
Di, 14.08. 5:30 3(5100m)
Di, 14.08. 5:00 2(3300m)
Ortszeit Luftdruck NN (hPa) Tendenz (hPa in 3 Std.)
Di, 14.08. 8:00 1007 + 1,2
Di, 14.08. 2:00 1006 - 0,2
Mo, 13.08. 20:00 1006 - 0,2
Mo, 13.08. 14:00 1008 - 1,3
Mo, 13.08. 8:00 1010 - 0,7
Mo, 13.08. 2:00 1012 - 1,2
So, 12.08. 20:00 1014 - 1,1
So, 12.08. 14:00 1016 - 1,1
Ortszeit Luftdruck NN (hPa) Tendenz (hPa in 3 Std.)
Di, 14.08. 8:00 1007 + 1,2
Di, 14.08. 7:50 1007 keine Meldung
Di, 14.08. 7:40 1007 keine Meldung
Di, 14.08. 7:30 1007 + 0,8
Di, 14.08. 7:20 1007 keine Meldung
Di, 14.08. 7:10 1007 keine Meldung
Di, 14.08. 7:00 1007 + 0,8
Di, 14.08. 6:30 1006 + 0,4
Di, 14.08. 6:00 1006 + 0,5
Di, 14.08. 5:30 1006 + 0,2
Di, 14.08. 5:00 1006 + 0,1
Ortszeit Schneehöhe (cm)
Di, 14.08. 8:00 0
Di, 14.08. 2:00 0
Mo, 13.08. 20:00 0
Mo, 13.08. 14:00 0
Mo, 13.08. 8:00 0
Mo, 13.08. 2:00 0
So, 12.08. 20:00 0
So, 12.08. 14:00 0
Ortszeit Schneehöhe (cm)
Di, 14.08. 8:00 0
Di, 14.08. 7:50 -
Di, 14.08. 7:40 -
Di, 14.08. 7:30 -
Di, 14.08. 7:20 -
Di, 14.08. 7:10 -
Di, 14.08. 7:00 -
Di, 14.08. 6:30 -
Di, 14.08. 6:00 -
Di, 14.08. 5:30 -
Di, 14.08. 5:00 -
Link zu dieser Seite / Seite empfehlen

Das Wetter in ...